createdAt,value
2023-05-10T00:02:07.714Z,63.87
2023-05-10T00:04:36.363Z,63.51
2023-05-10T00:07:04.777Z,64.01
2023-05-10T00:09:34.457Z,64.01
2023-05-10T00:12:02.783Z,63.45
2023-05-10T00:14:31.276Z,63.53
2023-05-10T00:16:59.601Z,64.09
2023-05-10T00:19:28.003Z,63.46
2023-05-10T00:21:56.468Z,64.59
2023-05-10T00:24:24.795Z,63.53
2023-05-10T00:26:54.510Z,64.63
2023-05-10T00:29:22.932Z,65.02
2023-05-10T00:31:51.346Z,65.63
2023-05-10T00:34:19.705Z,65.32
2023-05-10T00:36:47.992Z,65.71
2023-05-10T00:39:16.411Z,65.44
2023-05-10T00:41:44.721Z,65.28
2023-05-10T00:44:14.505Z,65.30
2023-05-10T00:46:43.510Z,64.93
2023-05-10T00:49:12.452Z,65.06
2023-05-10T00:51:41.029Z,64.55
2023-05-10T00:54:09.692Z,64.37
2023-05-10T00:56:38.778Z,64.63
2023-05-10T00:59:07.190Z,64.77
2023-05-10T01:01:37.760Z,64.49
2023-05-10T01:04:06.456Z,64.48
2023-05-10T01:06:34.890Z,65.00
2023-05-10T01:09:03.376Z,65.90
2023-05-10T01:11:32.269Z,65.79
2023-05-10T01:14:01.475Z,66.65
2023-05-10T01:16:31.888Z,66.06
2023-05-10T01:19:01.781Z,67.21
2023-05-10T01:21:35.084Z,67.81
2023-05-10T01:24:33.361Z,67.62
2023-05-10T01:27:21.991Z,67.22
2023-05-10T01:30:22.357Z,66.99
2023-05-10T01:32:59.239Z,66.86
2023-05-10T01:35:35.074Z,68.00
2023-05-10T01:38:10.057Z,68.69
2023-05-10T01:40:42.716Z,68.08
2023-05-10T01:43:24.352Z,68.18
2023-05-10T01:46:01.968Z,69.19
2023-05-10T01:48:33.038Z,68.87
2023-05-10T01:51:01.645Z,69.22
2023-05-10T01:53:31.139Z,69.70
2023-05-10T01:56:01.254Z,69.26
2023-05-10T01:58:32.552Z,69.96
2023-05-10T02:01:04.589Z,70.49
2023-05-10T02:03:37.176Z,70.62
2023-05-10T02:06:07.095Z,71.25
2023-05-10T02:08:37.959Z,71.57
2023-05-10T02:11:07.362Z,71.64
2023-05-10T02:13:40.311Z,72.40
2023-05-10T02:16:09.561Z,72.16
2023-05-10T02:18:41.351Z,71.74
2023-05-10T02:21:11.357Z,71.40
2023-05-10T02:23:40.868Z,72.37
2023-05-10T02:26:10.751Z,72.83
2023-05-10T02:28:40.167Z,73.02
2023-05-10T02:31:10.794Z,73.29
2023-05-10T02:33:42.179Z,73.93
2023-05-10T02:36:12.760Z,74.01
2023-05-10T02:38:42.327Z,74.38
2023-05-10T02:41:12.354Z,74.05
2023-05-10T02:43:42.846Z,74.58
2023-05-10T02:46:11.220Z,74.15
2023-05-10T02:48:41.031Z,74.91
2023-05-10T02:51:10.770Z,74.75
2023-05-10T02:53:43.078Z,74.33
2023-05-10T02:56:16.046Z,74.67
2023-05-10T02:58:44.441Z,75.48
2023-05-10T03:01:12.822Z,75.07
2023-05-10T03:03:42.746Z,75.05
2023-05-10T03:06:11.538Z,75.61
2023-05-10T03:08:40.206Z,75.02
2023-05-10T03:11:24.672Z,75.01
2023-05-10T03:14:09.851Z,74.76
2023-05-10T03:16:46.274Z,73.87
2023-05-10T03:19:23.325Z,74.45
2023-05-10T03:21:54.712Z,73.95
2023-05-10T03:24:25.226Z,74.48
2023-05-10T03:26:57.622Z,75.00
2023-05-10T03:29:28.889Z,75.94
2023-05-10T03:31:57.316Z,75.41
2023-05-10T03:34:33.463Z,75.81
2023-05-10T03:37:01.758Z,75.87
2023-05-10T03:39:30.125Z,76.49
2023-05-10T03:41:58.442Z,76.11
2023-05-10T03:44:26.758Z,76.70
2023-05-10T03:46:55.162Z,76.37
2023-05-10T03:49:23.509Z,76.47
2023-05-10T03:51:53.146Z,76.81
2023-05-10T03:54:21.469Z,76.08
2023-05-10T03:56:49.870Z,76.72
2023-05-10T03:59:18.167Z,76.46
2023-05-10T04:01:46.574Z,76.55
2023-05-10T04:04:14.956Z,76.82
2023-05-10T04:06:43.327Z,77.18
2023-05-10T04:09:13.094Z,76.95
2023-05-10T04:11:41.468Z,77.32
2023-05-10T04:14:09.800Z,76.78
2023-05-10T04:16:38.327Z,76.82
2023-05-10T04:19:06.843Z,76.63
2023-05-10T04:21:35.142Z,76.53
2023-05-10T04:24:03.445Z,76.21
2023-05-10T04:26:33.323Z,76.49
2023-05-10T04:29:01.661Z,76.18
2023-05-10T04:31:30.066Z,76.24
2023-05-10T04:33:58.404Z,76.06
2023-05-10T04:36:26.727Z,75.97
2023-05-10T04:38:55.042Z,76.50
2023-05-10T04:41:23.396Z,75.98
2023-05-10T04:43:53.136Z,75.50
2023-05-10T04:46:21.434Z,75.54
2023-05-10T04:48:49.969Z,75.53
2023-05-10T04:51:18.276Z,74.09
2023-05-10T04:53:54.156Z,74.04
2023-05-10T04:56:26.150Z,73.80
2023-05-10T04:58:55.830Z,73.34
2023-05-10T05:01:24.257Z,72.48
2023-05-10T05:03:53.851Z,72.07
2023-05-10T05:06:22.755Z,71.87
2023-05-10T05:08:51.144Z,72.00
2023-05-10T05:11:19.529Z,71.27
2023-05-10T05:13:47.900Z,70.86
2023-05-10T05:16:17.824Z,70.73
2023-05-10T05:18:46.218Z,70.43
2023-05-10T05:21:18.015Z,70.05
2023-05-10T05:23:46.622Z,70.03
2023-05-10T05:26:15.854Z,69.40
2023-05-10T05:28:44.264Z,70.10
2023-05-10T05:31:12.598Z,69.56
2023-05-10T05:33:42.311Z,69.89
2023-05-10T05:36:11.210Z,69.03
2023-05-10T05:38:39.551Z,69.41
2023-05-10T05:41:07.866Z,68.58
2023-05-10T05:43:38.036Z,68.51
2023-05-10T05:46:07.046Z,67.96
2023-05-10T05:48:35.558Z,68.07
2023-05-10T05:51:07.284Z,66.75
2023-05-10T05:53:35.920Z,66.87
2023-05-10T05:56:04.665Z,66.11
2023-05-10T05:58:33.050Z,66.13
2023-05-10T06:01:01.399Z,66.84
2023-05-10T06:03:29.815Z,66.32
2023-05-10T06:05:58.268Z,64.62
2023-05-10T06:08:27.927Z,64.76
2023-05-10T06:10:56.220Z,64.92
2023-05-10T06:13:24.614Z,65.07
2023-05-10T06:15:52.930Z,65.24
2023-05-10T06:18:21.260Z,63.88
2023-05-10T06:20:49.541Z,63.12
2023-05-10T06:23:17.897Z,62.87
2023-05-10T06:25:47.538Z,63.06
2023-05-10T06:28:15.996Z,62.31
2023-05-10T06:30:44.418Z,62.85
2023-05-10T06:33:12.816Z,63.17
2023-05-10T06:35:41.312Z,62.70
2023-05-10T06:38:09.637Z,63.03
2023-05-10T06:40:38.095Z,63.14
2023-05-10T06:43:07.742Z,62.67
2023-05-10T06:45:36.073Z,62.35
2023-05-10T06:48:04.755Z,61.71
2023-05-10T06:50:33.237Z,61.74
2023-05-10T06:53:02.747Z,61.61
2023-05-10T06:55:31.217Z,61.17
2023-05-10T06:57:59.619Z,60.82
2023-05-10T07:00:29.365Z,60.67
2023-05-10T07:02:57.777Z,60.48
2023-05-10T07:05:28.790Z,61.45
2023-05-10T07:07:57.338Z,61.47
2023-05-10T07:10:25.673Z,60.17
2023-05-10T07:12:54.090Z,60.24
2023-05-10T07:15:22.763Z,60.58
2023-05-10T07:17:53.159Z,60.65
2023-05-10T07:20:21.634Z,60.57
2023-05-10T07:22:49.931Z,59.64
2023-05-10T07:25:18.580Z,59.59
2023-05-10T07:27:49.374Z,59.29
2023-05-10T07:30:17.789Z,59.16
2023-05-10T07:32:46.227Z,59.03
2023-05-10T07:35:16.530Z,59.28
2023-05-10T07:37:45.165Z,58.27
2023-05-10T07:40:13.599Z,57.24
2023-05-10T07:42:41.899Z,57.56
2023-05-10T07:45:11.169Z,58.03
2023-05-10T07:47:39.522Z,57.55
2023-05-10T07:50:09.691Z,57.81
2023-05-10T07:52:39.451Z,57.54
2023-05-10T07:55:09.273Z,56.96
2023-05-10T07:57:37.858Z,56.96
2023-05-10T08:00:07.251Z,56.31
2023-05-10T08:02:37.915Z,56.21
2023-05-10T08:05:07.390Z,56.13
2023-05-10T08:07:35.747Z,56.42
2023-05-10T08:10:06.113Z,56.16
2023-05-10T08:12:34.428Z,56.97
2023-05-10T08:15:02.910Z,56.46
2023-05-10T08:17:31.346Z,55.83
2023-05-10T08:19:59.698Z,55.44
2023-05-10T08:22:28.385Z,54.80
2023-05-10T08:24:56.708Z,54.26
2023-05-10T08:27:26.403Z,53.28
2023-05-10T08:29:54.829Z,53.88
2023-05-10T08:32:23.157Z,54.15
2023-05-10T08:34:51.508Z,52.83
2023-05-10T08:37:19.975Z,53.60
2023-05-10T08:39:48.964Z,54.40
2023-05-10T08:42:21.085Z,54.51
2023-05-10T08:44:51.117Z,53.89
2023-05-10T08:47:20.690Z,52.55
2023-05-10T08:49:52.069Z,53.18
2023-05-10T08:52:20.807Z,53.10
2023-05-10T08:54:49.710Z,51.51
2023-05-10T08:57:18.203Z,51.87
2023-05-10T08:59:46.972Z,51.54
2023-05-10T09:02:18.701Z,50.45
2023-05-10T09:04:47.737Z,51.81
2023-05-10T09:07:16.849Z,51.98
2023-05-10T09:09:46.176Z,52.17
2023-05-10T09:12:16.601Z,51.05
2023-05-10T09:14:47.581Z,50.11
2023-05-10T09:17:17.349Z,51.45
2023-05-10T09:19:47.170Z,51.66
2023-05-10T09:22:15.646Z,50.93
2023-05-10T09:24:46.243Z,49.93
2023-05-10T09:27:14.744Z,50.21
2023-05-10T09:29:44.760Z,49.88
2023-05-10T09:32:13.865Z,48.11
2023-05-10T09:34:43.746Z,48.62
2023-05-10T09:37:12.049Z,48.54
2023-05-10T09:39:42.279Z,48.88
2023-05-10T09:42:11.909Z,49.12
2023-05-10T09:44:41.849Z,48.83
2023-05-10T09:47:10.250Z,48.49
2023-05-10T09:49:38.589Z,48.34
2023-05-10T09:52:10.003Z,48.29
2023-05-10T09:54:38.297Z,47.35
2023-05-10T09:57:06.882Z,47.31
2023-05-10T09:59:36.201Z,46.48
2023-05-10T10:02:05.031Z,46.53
2023-05-10T10:04:33.930Z,46.28
2023-05-10T10:07:04.726Z,46.99
2023-05-10T10:09:36.498Z,45.73
2023-05-10T10:12:05.618Z,45.96
2023-05-10T10:14:34.164Z,45.85
2023-05-10T10:19:36.081Z,45.82
2023-05-10T10:22:05.103Z,44.73
2023-05-10T10:24:34.945Z,43.73
2023-05-10T10:27:11.367Z,43.13
2023-05-10T10:29:49.532Z,42.45
2023-05-10T10:32:26.780Z,41.91
2023-05-10T10:34:57.158Z,41.52
2023-05-10T10:37:42.963Z,38.86
2023-05-10T10:40:29.887Z,38.37
2023-05-10T10:43:00.080Z,38.58
2023-05-10T10:45:28.738Z,39.23
2023-05-10T10:48:24.555Z,38.61
2023-05-10T10:50:58.542Z,38.43
2023-05-10T10:53:28.232Z,38.98
2023-05-10T10:56:08.690Z,37.43
2023-05-10T10:58:37.715Z,37.28
2023-05-10T11:01:14.335Z,37.50
2023-05-10T11:03:56.800Z,37.75
2023-05-10T11:06:32.609Z,37.30
2023-05-10T11:09:01.998Z,36.56
2023-05-10T11:11:31.855Z,35.04
2023-05-10T11:14:06.330Z,36.49
2023-05-10T11:16:44.710Z,35.41
2023-05-10T11:19:14.772Z,35.11
2023-05-10T11:21:50.480Z,34.63
2023-05-10T11:24:20.650Z,33.96
2023-05-10T11:26:52.617Z,33.39
2023-05-10T11:29:21.224Z,33.62
2023-05-10T11:31:50.929Z,32.43
2023-05-10T11:34:26.847Z,33.07
2023-05-10T11:36:55.986Z,33.03
2023-05-10T11:39:28.524Z,32.22
2023-05-10T11:41:59.388Z,32.23
2023-05-10T11:44:31.927Z,32.92
2023-05-10T11:47:01.712Z,32.84
2023-05-10T11:49:30.155Z,32.13
2023-05-10T11:52:06.544Z,31.83
2023-05-10T11:54:35.796Z,31.82
2023-05-10T11:57:06.078Z,31.23
2023-05-10T11:59:34.470Z,31.22
2023-05-10T12:02:03.185Z,30.93
2023-05-10T12:04:31.884Z,30.69
2023-05-10T12:07:00.465Z,31.08
2023-05-10T12:09:42.560Z,30.30
2023-05-10T12:12:17.854Z,29.81
2023-05-10T12:14:46.158Z,30.75
2023-05-10T12:17:15.024Z,30.06
2023-05-10T12:19:44.738Z,30.47
2023-05-10T12:22:13.135Z,29.08
2023-05-10T12:24:41.537Z,30.43
2023-05-10T12:27:10.758Z,29.38
2023-05-10T12:29:44.929Z,28.29
2023-05-10T12:32:13.464Z,29.26
2023-05-10T12:34:42.288Z,29.18
2023-05-10T12:37:10.778Z,29.39
2023-05-10T12:39:43.088Z,29.89
2023-05-10T12:42:12.448Z,31.06
2023-05-10T12:44:42.160Z,30.43
2023-05-10T12:47:10.622Z,29.82
2023-05-10T12:49:38.956Z,30.50
2023-05-10T12:52:07.356Z,29.98
2023-05-10T12:54:36.880Z,28.65
2023-05-10T12:57:05.292Z,28.66
2023-05-10T12:59:35.187Z,28.14
2023-05-10T13:02:05.964Z,28.34
2023-05-10T13:04:34.542Z,28.77
2023-05-10T13:07:02.885Z,29.19
2023-05-10T13:09:31.310Z,27.94
2023-05-10T13:11:59.647Z,28.65
2023-05-10T13:14:28.381Z,27.75
2023-05-10T13:16:56.777Z,28.53
2023-05-10T13:19:26.582Z,28.51
2023-05-10T13:21:54.899Z,28.93
2023-05-10T13:24:23.328Z,29.34
2023-05-10T13:26:51.666Z,28.80
2023-05-10T13:29:20.316Z,28.59
2023-05-10T13:31:48.726Z,28.92
2023-05-10T13:34:17.619Z,27.91
2023-05-10T13:36:47.395Z,27.84
2023-05-10T13:39:15.797Z,28.49
2023-05-10T13:41:44.199Z,28.22
2023-05-10T13:44:14.713Z,27.88
2023-05-10T13:46:43.367Z,27.75
2023-05-10T13:49:11.788Z,26.69
2023-05-10T13:51:40.168Z,27.48
2023-05-10T13:54:11.961Z,29.07
2023-05-10T13:56:41.880Z,27.36
2023-05-10T13:59:10.280Z,26.97
2023-05-10T14:01:39.130Z,28.00
2023-05-10T14:04:08.109Z,26.96
2023-05-10T14:06:36.505Z,27.89
2023-05-10T14:09:05.122Z,26.91
2023-05-10T14:11:34.950Z,27.58
2023-05-10T14:14:03.537Z,27.81
2023-05-10T14:16:32.172Z,28.12
2023-05-10T14:19:00.607Z,26.48
2023-05-10T14:21:30.369Z,27.46
2023-05-10T14:23:58.755Z,27.84
2023-05-10T14:26:27.263Z,27.67
2023-05-10T14:28:57.223Z,26.33
2023-05-10T14:31:26.545Z,26.77
2023-05-10T14:33:54.997Z,25.36
2023-05-10T14:36:23.524Z,26.35
2023-05-10T14:38:52.568Z,26.25
2023-05-10T14:41:20.914Z,25.61
2023-05-10T14:43:49.280Z,25.04
2023-05-10T14:46:20.131Z,25.54
2023-05-10T14:48:48.516Z,25.95
2023-05-10T14:51:16.935Z,26.51
2023-05-10T14:53:45.816Z,26.62
2023-05-10T14:56:14.148Z,26.15
2023-05-10T14:58:42.470Z,26.86
2023-05-10T15:01:10.818Z,27.33
2023-05-10T15:03:41.790Z,27.51
2023-05-10T15:06:11.615Z,27.60
2023-05-10T15:08:39.930Z,27.62
2023-05-10T15:11:08.378Z,28.80
2023-05-10T15:13:36.705Z,28.42
2023-05-10T15:16:05.326Z,28.68
2023-05-10T15:18:33.789Z,28.83
2023-05-10T15:21:03.596Z,29.09
2023-05-10T15:23:33.025Z,29.27
2023-05-10T15:26:02.428Z,29.22
2023-05-10T15:28:32.396Z,29.72
2023-05-10T15:31:01.324Z,30.04
2023-05-10T15:33:29.690Z,30.19
2023-05-10T15:35:58.069Z,30.07
2023-05-10T15:38:27.850Z,31.47
2023-05-10T15:40:58.611Z,31.52
2023-05-10T15:43:27.219Z,31.89
2023-05-10T15:45:55.570Z,32.32
2023-05-10T15:48:23.949Z,32.30
2023-05-10T15:50:52.300Z,32.68
2023-05-10T15:53:20.699Z,32.78
2023-05-10T15:55:50.406Z,32.23
2023-05-10T15:58:18.801Z,32.63
2023-05-10T16:00:47.151Z,33.04
2023-05-10T16:03:16.243Z,32.27
2023-05-10T16:05:44.642Z,32.87
2023-05-10T16:08:12.951Z,33.36
2023-05-10T16:10:42.250Z,33.72
2023-05-10T16:13:12.082Z,33.86
2023-05-10T16:15:40.416Z,33.91
2023-05-10T16:18:08.802Z,34.64
2023-05-10T16:20:37.201Z,34.06
2023-05-10T16:23:06.971Z,34.40
2023-05-10T16:25:35.705Z,34.74
2023-05-10T16:28:04.371Z,35.28
2023-05-10T16:30:34.304Z,35.03
2023-05-10T16:33:02.842Z,34.99
2023-05-10T16:35:31.222Z,35.30
2023-05-10T16:37:59.590Z,39.55
2023-05-10T16:40:27.990Z,41.65
2023-05-10T16:42:56.412Z,43.20
2023-05-10T16:45:25.823Z,42.50
2023-05-10T16:47:56.424Z,43.97
2023-05-10T16:50:25.106Z,45.51
2023-05-10T16:52:53.536Z,46.18
2023-05-10T16:55:24.791Z,47.94
2023-05-10T16:57:59.612Z,51.44
2023-05-10T17:00:28.080Z,54.63
2023-05-10T17:02:58.114Z,56.31
2023-05-10T17:05:27.317Z,57.42
2023-05-10T17:07:56.001Z,58.61
2023-05-10T17:10:24.412Z,58.84
2023-05-10T17:12:53.614Z,59.35
2023-05-10T17:15:22.275Z,60.54
2023-05-10T17:17:50.770Z,61.55
2023-05-10T17:20:20.896Z,62.10
2023-05-10T17:22:49.860Z,62.72
2023-05-10T17:25:18.367Z,63.02
2023-05-10T17:27:47.057Z,64.13
2023-05-10T17:30:16.927Z,64.86
2023-05-10T17:32:45.372Z,65.16
2023-05-10T17:35:13.859Z,65.65
2023-05-10T17:37:44.125Z,66.42
2023-05-10T17:40:13.200Z,66.04
2023-05-10T17:42:41.825Z,66.75
2023-05-10T17:45:11.241Z,68.08
2023-05-10T17:47:39.640Z,68.45
2023-05-10T17:50:10.062Z,69.14
2023-05-10T17:52:38.660Z,70.01
2023-05-10T17:55:09.656Z,70.35
2023-05-10T17:57:38.807Z,70.67
2023-05-10T18:00:10.123Z,71.93
2023-05-10T18:02:38.604Z,72.11
2023-05-10T18:05:07.826Z,72.20
2023-05-10T18:07:36.956Z,72.40
2023-05-10T18:10:06.678Z,73.16
2023-05-10T18:12:36.503Z,73.55
2023-05-10T18:15:05.357Z,74.28
2023-05-10T18:17:34.961Z,74.18
2023-05-10T18:20:03.526Z,74.65
2023-05-10T18:22:31.887Z,74.23
2023-05-10T18:25:00.286Z,75.05
2023-05-10T18:27:28.954Z,75.85
2023-05-10T18:29:58.655Z,75.50
2023-05-10T18:32:27.109Z,75.92
2023-05-10T18:34:56.624Z,76.87
2023-05-10T18:37:25.149Z,77.30
2023-05-10T18:39:54.048Z,78.25
2023-05-10T18:42:22.941Z,78.81
2023-05-10T18:44:51.399Z,79.48
2023-05-10T18:47:21.347Z,79.76
2023-05-10T18:49:49.938Z,80.27
2023-05-10T18:52:18.947Z,81.23
2023-05-10T18:54:47.469Z,80.81
2023-05-10T18:57:16.003Z,81.22
2023-05-10T18:59:44.715Z,81.67
2023-05-10T19:02:13.170Z,81.93
2023-05-10T19:04:43.357Z,82.98
2023-05-10T19:07:11.969Z,82.64
2023-05-10T19:09:40.397Z,82.87
2023-05-10T19:12:08.894Z,83.35
2023-05-10T19:14:37.296Z,84.70
2023-05-10T19:17:08.782Z,85.39
2023-05-10T19:19:37.567Z,86.50
2023-05-10T19:22:07.379Z,86.15
2023-05-10T19:24:37.224Z,86.96
2023-05-10T19:27:05.729Z,87.15
2023-05-10T19:29:34.141Z,87.98
2023-05-10T19:32:02.591Z,88.72
2023-05-10T19:34:31.124Z,89.33
2023-05-10T19:36:59.758Z,89.68
2023-05-10T19:39:30.850Z,90.33
2023-05-10T19:41:59.607Z,91.46
2023-05-10T19:44:27.999Z,92.09
2023-05-10T19:46:57.046Z,92.44
2023-05-10T19:49:27.135Z,92.56
2023-05-10T19:51:56.078Z,93.52
2023-05-10T19:54:24.400Z,93.14
2023-05-10T19:56:54.086Z,93.66
2023-05-10T19:59:22.413Z,93.76
2023-05-10T20:01:50.737Z,94.01
2023-05-10T20:04:19.310Z,93.76
2023-05-10T20:06:47.837Z,94.15
2023-05-10T20:09:16.589Z,94.59
2023-05-10T20:11:44.905Z,95.67
2023-05-10T20:14:14.693Z,95.10
2023-05-10T20:16:43.088Z,95.58
2023-05-10T20:19:12.256Z,95.79
2023-05-10T20:21:40.694Z,95.56
2023-05-10T20:24:10.082Z,95.20
2023-05-10T20:26:38.510Z,95.64
2023-05-10T20:29:07.030Z,95.70
2023-05-10T20:31:36.798Z,96.35
2023-05-10T20:34:05.431Z,96.55
2023-05-10T20:36:33.881Z,97.26
2023-05-10T20:39:02.224Z,97.00
2023-05-10T20:41:30.557Z,97.32
2023-05-10T20:43:58.893Z,97.85
2023-05-10T20:46:28.095Z,98.12
2023-05-10T20:48:57.957Z,97.93
2023-05-10T20:51:27.024Z,98.56
2023-05-10T20:53:57.175Z,98.42
2023-05-10T20:56:26.884Z,98.75
2023-05-10T20:58:55.231Z,98.86
2023-05-10T21:01:23.856Z,99.24
2023-05-10T21:03:52.377Z,98.75
2023-05-10T21:06:22.056Z,99.42
2023-05-10T21:08:50.385Z,99.51
2023-05-10T21:11:18.810Z,100.00
2023-05-10T21:13:47.340Z,99.84
2023-05-10T21:16:15.795Z,99.85
2023-05-10T21:18:44.252Z,99.23
2023-05-10T21:21:12.651Z,98.50
2023-05-10T21:23:42.367Z,97.70
2023-05-10T21:26:10.744Z,98.09
2023-05-10T21:28:40.268Z,98.39
2023-05-10T21:31:08.822Z,98.13
2023-05-10T21:33:37.350Z,98.00
2023-05-10T21:36:06.516Z,98.64
2023-05-10T21:38:34.905Z,99.21
2023-05-10T21:41:07.741Z,99.67
2023-05-10T21:43:36.134Z,100.00
2023-05-10T21:46:04.788Z,99.88
2023-05-10T21:48:33.230Z,98.89
2023-05-10T21:51:02.068Z,99.10
2023-05-10T21:53:30.518Z,99.34
2023-05-10T21:55:58.846Z,100.00
2023-05-10T21:58:28.656Z,100.00
2023-05-10T22:00:57.100Z,100.00
2023-05-10T22:03:26.203Z,99.73
2023-05-10T22:05:54.701Z,99.93
2023-05-10T22:08:22.990Z,100.00
2023-05-10T22:10:52.701Z,100.00
2023-05-10T22:13:21.104Z,100.00
2023-05-10T22:15:51.654Z,100.00
2023-05-10T22:18:21.031Z,100.00
2023-05-10T22:20:49.449Z,100.00
2023-05-10T22:23:17.832Z,100.00
2023-05-10T22:25:46.193Z,100.00
2023-05-10T22:28:15.842Z,100.00
2023-05-10T22:30:45.123Z,100.00
2023-05-10T22:33:15.048Z,100.00
2023-05-10T22:35:43.454Z,100.00
2023-05-10T22:38:12.685Z,100.00
2023-05-10T22:40:41.067Z,100.00
2023-05-10T22:43:09.585Z,100.00
2023-05-10T22:45:38.046Z,100.00
2023-05-10T22:48:06.651Z,100.00
2023-05-10T22:50:36.992Z,100.00
2023-05-10T22:53:06.631Z,100.00
2023-05-10T22:55:36.461Z,100.00
2023-05-10T22:58:04.916Z,100.00
2023-05-10T23:00:33.867Z,100.00
2023-05-10T23:03:02.627Z,100.00
2023-05-10T23:05:31.039Z,100.00
2023-05-10T23:08:00.741Z,100.00
2023-05-10T23:10:29.103Z,100.00
2023-05-10T23:12:57.457Z,100.00
2023-05-10T23:15:25.784Z,100.00
2023-05-10T23:17:54.166Z,100.00
2023-05-10T23:20:22.774Z,100.00
2023-05-10T23:22:51.117Z,100.00
2023-05-10T23:25:20.911Z,100.00
2023-05-10T23:27:49.221Z,100.00
2023-05-10T23:30:18.028Z,100.00
2023-05-10T23:32:46.557Z,100.00
2023-05-10T23:35:14.912Z,100.00
2023-05-10T23:37:43.485Z,100.00
2023-05-10T23:40:13.481Z,100.00
2023-05-10T23:42:43.386Z,100.00
2023-05-10T23:45:12.580Z,100.00
2023-05-10T23:47:41.541Z,100.00
2023-05-10T23:50:11.088Z,100.00
2023-05-10T23:52:39.404Z,100.00
2023-05-10T23:55:08.845Z,100.00
2023-05-10T23:57:37.191Z,100.00
